THUNDERSTORM

Not for real navigation. The accuracy of this data is not assured See disclaimer for more information



ICAO NAME COUNTRY WIND Kt GUST Kt VIS m TEMP/DEW C BARO METAR
KCQX CHATHAM MUNICIPAL AIRPORT MA United States 9 14 800 8/8 30.22 KCQX 211852Z AUTO 23009G14KT 0.5SM FG VV002 08/08 A3022 RMK AO2 SLP236 T00780078 TS
KESF ALEXANDRIA ESLER RGNL AIRPORT LA United States 10 0 1200 19/18 30.09 KESF 211853Z AUTO 31010KT 0.75SM +TSRA BR FEW013 BKN020 OVC029 19/18 A3009 RMK AO2 PK WND 19027/1759
PADE DEERING AIRPORT AK United States 16 0 1600 -3/-4 30.05 PADE 211853Z AUTO 11016KT 1 0.5SM -SN BR BKN017 OVC055 M03/M04 A3005 RMK AO2 SLP176 P0000 T10281044
PAKV KALTAG AIRPORT AK United States 3 0 1600 -6/-7 30.24 PAKV 211753Z AUTO 21003KT 1 0.75SM -SN BR SCT017 OVC024 M06/M07 A3024 RMK SLP246 P0000 60000 T105610
KBAD Barksdale Air Force Base LA United States 11 21 1600 14/14 30.18 KBAD 211856Z 07011G21KT 1 0.25SM +TSRA BR OVC010 14/14 A3018 RMK AO2A TWR VIS 1 TSB53 SLP222 P0038 T

Show more